KHNB

Huntingburg Airport

Huntingburg, Indiana, USA
METAR KHNB 240056Z AUTO 06005KT 10SM CLR 24/15 A3011 RMK AO2 SLP193 T02440150
Observed Flight Rules
May-24 @ 00:56 UTC (55 minutes ago) Visual Flight Rules
Wind Visibility Clouds
60° at 5 knots 10 miles
  • Clear skies
Temperatures Readings
Current 24°C / 75°F
Dewpoint 15°C / 59°F
Humidity 57%
Altimeter 30.11" Hg
Pressure 1019.3 hPa
Elevation 161
METAR KHNB 240056Z AUTO 06005KT 10SM CLR 24/15 A3011 RMK AO2 SLP193 T02440150
Observed Flight Rules
May-24 @ 00:56 UTC
(55 minutes ago)
VFR
Wind Visibility
60° at 5 knots 10 miles
Clouds
  • Clear skies
Temperature Dewpoint
24°C / 75°F 15°C / 59°F
Humidity Altimeter Pressure
57% 30.11" Hg 1019.3 hPa